Flight Track Log - Related Links

Times and Time Zones

All times are in EDT time to prevent confusion due to time zone crossing. See the UPS1121 flight status page for this flight to view local times or setup timezone preferences in your user account.

Time Position Orientation Groundspeed Altitude Reporting Facility
EDT Latitude Longitude Course Direction KTS MPH feet Rate Location/Type
Fri 11:13:18 PM 41.9458 -72.7025 324° Northwest 154 177 1,200  Level Boston Center
Fri 11:14:16 PM 41.9894 -72.7444 324° Northwest 191 220 3,100 2,136 Climbing Boston Center
Fri 11:15:16 PM 42.0497 -72.7839 334° Northwest 216 249 5,400 2,650 Climbing Boston Center
Fri 11:16:16 PM 42.1100 -72.8236 334° Northwest 256 295 8,400 2,025 Climbing Boston Center
Fri 11:21:53 PM 42.2430 -73.4780 334° Northwest 411 473 18,800 1,850 Climbing FlightAware ADS-B
Fri 11:22:29 PM 42.2350 -73.5700 263° West 416 479 19,900 1,917 Climbing FlightAware ADS-B
Fri 11:23:05 PM 42.2260 -73.6630 263° West 420 483 21,100 1,941 Climbing FlightAware ADS-B
Fri 11:23:37 PM 42.2180 -73.7490 263° West 424 488 22,100 1,726 Climbing FlightAware ADS-B
Fri 11:24:18 PM 42.2090 -73.8540 263° West 345 397 23,200 1,077 Climbing FlightAware ADS-B
Fri 11:24:55 PM 42.2010 -73.9420 263° West 428 493 23,500 1,457 Climbing FlightAware ADS-B
Fri 11:25:28 PM 42.1910 -74.0420 262° West 533 613 24,900 1,731 Climbing FlightAware ADS-B
Fri 11:27:31 PM 42.1570 -74.3860 263° West 447 514 28,000 1,509 Climbing FlightAware ADS-B
Fri 11:28:07 PM 42.1480 -74.4860 263° West 447 514 28,900 1,560 Climbing FlightAware ADS-B
Fri 11:28:21 PM 42.1434 -74.5277 262° West 445 512 29,300 1,467 Climbing FlightAware ADS-B
Fri 11:28:52 PM 42.1348 -74.6126 262° West 441 507 30,000 706 Climbing FlightAware ADS-B
Fri 11:29:29 PM 42.1245 -74.7133 262° West 441 507 30,100  Climbing FlightAware ADS-B
Fri 11:30:04 PM 42.1145 -74.8111 262° West 447 514 30,000 -91 Descending FlightAware ADS-B
Fri 11:30:35 PM 42.1057 -74.8970 262° West 451 519 30,000  Level FlightAware ADS-B
Fri 11:31:08 PM 42.0963 -74.9881 262° West 451 519 30,000  Level FlightAware ADS-B
Fri 11:31:53 PM 42.0831 -75.1154 262° West 451 519 30,000  Level FlightAware ADS-B
Fri 11:32:26 PM 42.0735 -75.2070 262° West 451 519 30,000  Level FlightAware ADS-B
Fri 11:33:01 PM 42.0600 -75.3020 259° West 450 518 30,000  Level FlightAware ADS-B
Fri 11:33:24 PM 42.0420 -75.3636 249° West 451 519 30,000  Level FlightAware ADS-B
Fri 11:34:11 PM 41.9944 -75.4806 241° Southwest 453 521 30,000  Level FlightAware ADS-B
Fri 11:34:43 PM 41.9621 -75.5588 241° Southwest 452 520 30,000  Level FlightAware ADS-B
Fri 11:35:25 PM 41.9310 -75.6510 246° West 450 518 30,000 76 Level FlightAware ADS-B
Fri 11:36:02 PM 41.9040 -75.7648 252° West 451 519 30,100  Climbing FlightAware ADS-B
Fri 11:36:32 PM 41.8856 -75.8463 253° West 449 517 30,000 -91 Descending FlightAware ADS-B
Fri 11:37:08 PM 41.8641 -75.9427 253° West 447 514 30,000  Level FlightAware ADS-B
Fri 11:37:39 PM 41.8459 -76.0240 253° West 447 514 30,000  Level FlightAware ADS-B
Fri 11:38:09 PM 41.8280 -76.1044 253° West 447 514 30,000  Level FlightAware ADS-B
Fri 11:38:40 PM 41.8097 -76.1855 253° West 447 514 30,000  Level FlightAware ADS-B
Fri 11:39:10 PM 41.7918 -76.2651 253° West 446 513 30,000  Level FlightAware ADS-B
Fri 11:39:41 PM 41.7729 -76.3488 253° West 445 512 30,000  Level FlightAware ADS-B
Fri 11:40:14 PM 41.7533 -76.4354 253° West 446 513 30,000  Level FlightAware ADS-B
Fri 11:40:44 PM 41.7349 -76.5165 253° West 446 513 30,000  Level FlightAware ADS-B
Fri 11:41:24 PM 41.7106 -76.6214 253° West 446 513 30,000  Level FlightAware ADS-B
Fri 11:41:54 PM 41.6921 -76.7010 253° West 446 513 30,000  Level FlightAware ADS-B
Fri 11:42:54 PM 41.6554 -76.8586 253° West 445 512 30,000  Level FlightAware ADS-B
Fri 11:43:25 PM 41.6363 -76.9402 253° West 446 513 30,000  Level FlightAware ADS-B
Fri 11:44:02 PM 41.6132 -77.0391 253° West 446 513 30,000  Level FlightAware ADS-B
Fri 11:44:39 PM 41.5940 -77.1210 253° West 446 513 30,000  Level FlightAware ADS-B
Fri 11:45:14 PM 41.5720 -77.2150 253° West 446 513 30,000  Level FlightAware ADS-B
Fri 11:45:49 PM 41.5510 -77.3050 253° West 445 512 30,000  Level FlightAware ADS-B
Fri 11:46:24 PM 41.5280 -77.4010 252° West 445 512 30,000  Level FlightAware ADS-B
Fri 11:46:46 PM 41.5114 -77.4723 253° West 445 512 30,000  Level FlightAware ADS-B
Fri 11:47:34 PM 41.4850 -77.5820 252° West 445 512 30,000  Level FlightAware ADS-B
Fri 11:48:09 PM 41.4460 -77.6880 244° Southwest 448 516 30,000  Level FlightAware ADS-B
Fri 11:48:44 PM 41.4410 -77.7680 265° West 444 511 30,000  Level FlightAware ADS-B
Fri 11:49:19 PM 41.4190 -77.8590 252° West 444 511 30,000  Level FlightAware ADS-B
Fri 11:49:54 PM 41.3970 -77.9500 252° West 445 512 30,000  Level FlightAware ADS-B
Fri 11:50:29 PM 41.3720 -78.0400 250° West 445 512 30,000  Level FlightAware ADS-B
Fri 11:51:04 PM 41.3470 -78.1240 248° West 445 512 30,000  Level FlightAware ADS-B
Fri 11:51:39 PM 41.3180 -78.2180 248° West 445 512 30,000  Level FlightAware ADS-B
Fri 11:52:14 PM 41.2900 -78.3070 247° West 447 514 30,000  Level FlightAware ADS-B
Fri 11:52:49 PM 41.2620 -78.3950 247° West 447 514 30,000  Level FlightAware ADS-B
Fri 11:53:24 PM 41.2340 -78.4830 247° West 447 514 30,000  Level FlightAware ADS-B
Fri 11:53:59 PM 41.2080 -78.5640 247° West 446 513 30,000  Level FlightAware ADS-B
Fri 11:54:34 PM 41.1770 -78.6600 247° West 447 514 30,000  Level FlightAware ADS-B
Fri 11:55:09 PM 41.1490 -78.7470 247° West 448 516 30,000  Level FlightAware ADS-B
Fri 11:55:49 PM 41.1160 -78.8530 248° West 448 516 30,000  Level FlightAware ADS-B
Fri 11:56:24 PM 41.0870 -78.9420 247° West 449 517 30,000  Level FlightAware ADS-B
Fri 11:57:04 PM 41.0550 -79.0400 247° West 449 517 30,000  Level FlightAware ADS-B
Fri 11:57:39 PM 41.0250 -79.1320 247° West 449 517 30,000  Level FlightAware ADS-B
Fri 11:58:09 PM 41.0020 -79.2030 247° West 450 518 30,000  Level FlightAware ADS-B
Fri 11:58:49 PM 40.9680 -79.3070 247° West 449 517 30,000  Level FlightAware ADS-B
Fri 11:59:19 PM 40.9440 -79.3820 247° West 448 516 30,000  Level FlightAware ADS-B
Fri 11:59:54 PM 40.9140 -79.4720 246° West 450 518 30,000  Level FlightAware ADS-B
Sat 12:00:34 AM 40.8810 -79.5730 247° West 450 518 30,000  Level FlightAware ADS-B
Sat 12:01:09 AM 40.8510 -79.6620 246° West 451 519 30,000  Level FlightAware ADS-B
Sat 12:01:39 AM 40.8210 -79.7520 246° West 450 518 30,000  Level FlightAware ADS-B
Sat 12:02:17 AM 40.7910 -79.8420 246° West 449 517 30,000  Level FlightAware ADS-B
Sat 12:02:51 AM 40.7620 -79.9290 246° West 449 517 30,000  Level FlightAware ADS-B
Sat 12:03:25 AM 40.7330 -80.0150 246° West 448 516 30,000  Level FlightAware ADS-B
Sat 12:04:03 AM 40.6990 -80.1140 246° West 449 517 30,000  Level FlightAware ADS-B
Sat 12:04:35 AM 40.6710 -80.1950 246° West 450 518 30,000  Level FlightAware ADS-B
Sat 12:05:12 AM 40.6410 -80.2850 246° West 449 517 30,000  Level FlightAware ADS-B
Sat 12:05:48 AM 40.6090 -80.3760 245° Southwest 449 517 30,000  Level FlightAware ADS-B
Sat 12:06:22 AM 40.5800 -80.4620 246° West 449 517 30,000  Level FlightAware ADS-B
Sat 12:06:57 AM 40.5500 -80.5490 246° West 451 519 30,000  Level FlightAware ADS-B
Sat 12:07:34 AM 40.5180 -80.6410 245° Southwest 451 519 30,000  Level FlightAware ADS-B
Sat 12:08:08 AM 40.4890 -80.7250 246° West 451 519 30,000  Level FlightAware ADS-B
Sat 12:08:43 AM 40.4580 -80.8140 245° Southwest 452 520 30,000  Level FlightAware ADS-B
Sat 12:09:19 AM 40.4270 -80.9060 246° West 452 520 30,000  Level FlightAware ADS-B
Sat 12:09:55 AM 40.3950 -80.9960 245° Southwest 454 522 30,000 90 Level FlightAware ADS-B
Sat 12:10:26 AM 40.3680 -81.0730 245° Southwest 455 524 30,100 91 Climbing FlightAware ADS-B
Sat 12:11:01 AM 40.3370 -81.1620 245° Southwest 455 524 30,100 -81 Level FlightAware ADS-B
Sat 12:11:40 AM 40.3030 -81.2600 246° West 458 527 30,000 -85 Descending FlightAware ADS-B
Sat 12:12:12 AM 40.2740 -81.3400 245° Southwest 457 526 30,000  Level FlightAware ADS-B
Sat 12:12:47 AM 40.2420 -81.4290 245° Southwest 453 521 30,000  Level FlightAware ADS-B
Sat 12:13:21 AM 40.2120 -81.5150 245° Southwest 451 519 30,000  Level FlightAware ADS-B
Sat 12:13:58 AM 40.1800 -81.6050 245° Southwest 451 519 30,000  Level FlightAware ADS-B
Sat 12:14:34 AM 40.1490 -81.6930 245° Southwest 451 519 30,000  Level FlightAware ADS-B
Sat 12:15:09 AM 40.1170 -81.7830 245° Southwest 452 520 30,000  Level FlightAware ADS-B
Sat 12:15:42 AM 40.0880 -81.8640 245° Southwest 453 521 30,000  Level FlightAware ADS-B
Sat 12:16:19 AM 40.0550 -81.9570 245° Southwest 453 521 30,000  Level FlightAware ADS-B
Sat 12:16:55 AM 40.0230 -82.0470 245° Southwest 455 524 30,000  Level FlightAware ADS-B
Sat 12:17:26 AM 39.9960 -82.1230 245° Southwest 455 524 30,000  Level FlightAware ADS-B
Sat 12:18:01 AM 39.9630 -82.2120 244° Southwest 456 525 30,000  Level FlightAware ADS-B
Sat 12:18:37 AM 39.9310 -82.3010 245° Southwest 455 524 30,000  Level FlightAware ADS-B
Sat 12:19:15 AM 39.8960 -82.3960 244° Southwest 457 526 30,000  Level FlightAware ADS-B
Sat 12:19:48 AM 39.8670 -82.4770 245° Southwest 458 527 30,000  Level FlightAware ADS-B
Sat 12:20:25 AM 39.8320 -82.5700 244° Southwest 459 528 30,000  Level FlightAware ADS-B
Sat 12:20:57 AM 39.8020 -82.6520 245° Southwest 459 528 30,000  Level FlightAware ADS-B
Sat 12:21:33 AM 39.7690 -82.7420 245° Southwest 459 528 30,000  Level FlightAware ADS-B
Sat 12:22:05 AM 39.7400 -82.8200 244° Southwest 460 529 30,000  Level FlightAware ADS-B
Sat 12:22:43 AM 39.7050 -82.9140 244° Southwest 461 531 30,000  Level FlightAware ADS-B
Sat 12:23:19 AM 39.6720 -83.0060 245° Southwest 460 529 30,000  Level FlightAware ADS-B
Sat 12:23:55 AM 39.6390 -83.0940 244° Southwest 460 529 30,000  Level FlightAware ADS-B
Sat 12:24:27 AM 39.6080 -83.1750 244° Southwest 460 529 30,000  Level FlightAware ADS-B
Sat 12:25:03 AM 39.5750 -83.2640 244° Southwest 460 529 30,000  Level FlightAware ADS-B
Sat 12:25:39 AM 39.5410 -83.3530 244° Southwest 459 528 30,000  Level FlightAware ADS-B
Sat 12:26:15 AM 39.5070 -83.4430 244° Southwest 459 528 30,000  Level FlightAware ADS-B
Sat 12:26:47 AM 39.4770 -83.5210 244° Southwest 457 526 30,000  Level FlightAware ADS-B
Sat 12:27:23 AM 39.4400 -83.6080 241° Southwest 456 525 30,000  Level FlightAware ADS-B
Sat 12:27:59 AM 39.4000 -83.6920 238° Southwest 457 526 30,000  Level FlightAware ADS-B
Sat 12:28:31 AM 39.3630 -83.7670 237° Southwest 457 526 30,000  Level FlightAware ADS-B
Sat 12:29:07 AM 39.3220 -83.8490 237° Southwest 457 526 30,000  Level FlightAware ADS-B
Sat 12:29:43 AM 39.2800 -83.9330 237° Southwest 457 526 30,000  Level FlightAware ADS-B
Sat 12:30:19 AM 39.2390 -84.0140 237° Southwest 457 526 30,000  Level FlightAware ADS-B
Sat 12:30:51 AM 39.2040 -84.0840 237° Southwest 457 526 30,000  Level FlightAware ADS-B
Sat 12:31:25 AM 39.1630 -84.1660 237° Southwest 456 525 30,000 -643 Level FlightAware ADS-B
Sat 12:32:15 AM 39.1060 -84.2780 237° Southwest 446 513 29,100 -2,357 Descending FlightAware ADS-B
Sat 12:32:49 AM 39.0680 -84.3540 237° Southwest 453 521 26,700 -3,826 Descending FlightAware ADS-B
Sat 12:33:24 AM 39.0300 -84.4300 237° Southwest 461 531 24,700 -2,370 Descending FlightAware ADS-B
Sat 12:34:10 AM 38.9780 -84.5330 237° Southwest 463 533 23,500 -878 Descending FlightAware ADS-B
Sat 12:34:46 AM 38.9420 -84.6040 237° Southwest 463 533 23,500 -4,348 Level FlightAware ADS-B
Sat 12:35:19 AM 38.9000 -84.6850 236° Southwest 441 507 18,500 -4,167 Descending FlightAware ADS-B
Sat 12:35:58 AM 38.8630 -84.7580 237° Southwest 441 507 18,500 -3,150 Level FlightAware ADS-B
Sat 12:36:39 AM 38.8110 -84.8580 236° Southwest 416 479 14,300 -4,658 Descending FlightAware ADS-B
Sat 12:37:14 AM 38.7730 -84.9280 235° Southwest 408 470 12,600 -2,743 Descending FlightAware ADS-B
Sat 12:37:49 AM 38.7270 -84.9840 224° Southwest 398 458 11,100 -2,314 Descending FlightAware ADS-B
Sat 12:38:24 AM 38.6730 -85.0350 216° Southwest 378 435 9,900 -1,560 Descending FlightAware ADS-B
Sat 12:38:39 AM 38.6550 -85.0520 216° Southwest 378 435 9,800 -133 Descending FlightAware ADS-B
Sat 12:39:09 AM 38.6110 -85.0950 217° Southwest 371 427 9,800  Level FlightAware ADS-B
Sat 12:39:37 AM 38.5710 -85.1340 217° Southwest 345 397 9,800  Level FlightAware ADS-B
Sat 12:39:55 AM 38.5490 -85.1540 215° Southwest 336 387 9,800  Level FlightAware ADS-B
Sat 12:40:13 AM 38.5260 -85.1760 217° Southwest 338 389 9,800  Level FlightAware ADS-B
Sat 12:40:34 AM 38.5000 -85.2010 217° Southwest 338 389 9,800  Level FlightAware ADS-B
Sat 12:40:49 AM 38.4800 -85.2200 217° Southwest 339 390 9,800  Level FlightAware ADS-B
Sat 12:41:07 AM 38.4580 -85.2410 217° Southwest 340 391 9,800  Level FlightAware ADS-B
Sat 12:41:29 AM 38.4300 -85.2680 217° Southwest 339 390 9,800  Level FlightAware ADS-B
Sat 12:41:58 AM 38.3970 -85.2990 216° Southwest 308 354 9,800  Level FlightAware ADS-B
Sat 12:42:17 AM 38.3740 -85.3210 217° Southwest 289 333 9,800 -558 Level FlightAware ADS-B
Sat 12:42:41 AM 38.3480 -85.3460 217° Southwest 277 319 9,400 -1,227 Descending FlightAware ADS-B
Sat 12:43:01 AM 38.3270 -85.3650 215° Southwest 277 319 8,900 -1,350 Descending FlightAware ADS-B
Sat 12:43:21 AM 38.3090 -85.3830 218° Southwest 277 319 8,500 -1,429 Descending FlightAware ADS-B
Sat 12:43:43 AM 38.2840 -85.4060 216° Southwest 277 319 7,900 -1,579 Descending FlightAware ADS-B
Sat 12:43:59 AM 38.2680 -85.4220 218° Southwest 279 321 7,500 -1,500 Descending FlightAware ADS-B
Sat 12:44:19 AM 38.2470 -85.4420 217° Southwest 278 320 7,000 -1,500 Descending FlightAware ADS-B
Sat 12:44:31 AM 38.2350 -85.4540 218° Southwest 277 319 6,700 -1,313 Descending FlightAware ADS-B
Sat 12:44:51 AM 38.2150 -85.4730 217° Southwest 275 316 6,300 -1,227 Descending FlightAware ADS-B
Sat 12:45:15 AM 38.1890 -85.4960 215° Southwest 272 313 5,800 -1,227 Descending FlightAware ADS-B
Sat 12:45:35 AM 38.1690 -85.5150 217° Southwest 269 310 5,400 -1,200 Descending FlightAware ADS-B
Sat 12:45:55 AM 38.1490 -85.5340 217° Southwest 268 308 5,000 -1,350 Descending FlightAware ADS-B
Sat 12:46:15 AM 38.1290 -85.5520 215° Southwest 267 307 4,500 -1,448 Descending FlightAware ADS-B
Sat 12:46:24 AM 38.1190 -85.5580 205° Southwest 266 306 4,300 -1,059 Descending FlightAware ADS-B
Sat 12:46:32 AM 38.1110 -85.5610 196° South 264 304 4,200 -1,333 Descending FlightAware ADS-B
Sat 12:46:51 AM 38.0860 -85.5630 184° South 264 304 3,700 -1,543 Descending FlightAware ADS-B
Sat 12:47:07 AM 38.0680 -85.5650 185° South 264 304 3,300 -1,263 Descending FlightAware ADS-B
Sat 12:47:29 AM 38.0390 -85.5680 185° South 261 300 2,900 -714 Descending FlightAware ADS-B
Sat 12:47:49 AM 38.0150 -85.5710 186° South 243 280 2,800 -150 Descending FlightAware ADS-B
Sat 12:48:09 AM 37.9940 -85.5740 186° South 221 254 2,800  Level FlightAware ADS-B
Sat 12:48:25 AM 37.9800 -85.5770 190° South 210 242 2,800  Level FlightAware ADS-B
Sat 12:48:37 AM 37.9690 -85.5840 207° Southwest 206 237 2,800  Level FlightAware ADS-B
Sat 12:48:41 AM 37.9670 -85.5870 230° Southwest 206 237 2,800  Level FlightAware ADS-B
Sat 12:48:53 AM 37.9620 -85.6010 246° West 208 239 2,800  Level FlightAware ADS-B
Sat 12:49:19 AM 37.9700 -85.6300 289° West 208 239 2,800  Level FlightAware ADS-B
Sat 12:49:39 AM 37.9830 -85.6460 316° Northwest 206 237 2,800  Level FlightAware ADS-B
Sat 12:49:54 AM 37.9950 -85.6590 320° Northwest 207 238 2,800  Level FlightAware ADS-B
Sat 12:50:14 AM 38.0100 -85.6690 332° Northwest 196 226 2,800  Level FlightAware ADS-B
Sat 12:50:34 AM 38.0270 -85.6760 342° North 184 212 2,800  Level FlightAware ADS-B
Sat 12:50:54 AM 38.0430 -85.6830 341° North 172 198 2,800 -450 Level FlightAware ADS-B
Sat 12:51:14 AM 38.0590 -85.6880 346° North 168 193 2,500 -933 Descending FlightAware ADS-B
Sat 12:51:39 AM 38.0760 -85.6940 344° North 155 178 2,100 -933 Descending FlightAware ADS-B
Sat 12:51:59 AM 38.0900 -85.6980 347° North 149 171 1,800 -750 Descending FlightAware ADS-B
Sat 12:52:19 AM 38.1040 -85.7030 344° North 140 161 1,600 -750 Descending FlightAware ADS-B
Sat 12:52:39 AM 38.1160 -85.7070 345° North 131 151 1,300 -720 Descending FlightAware ADS-B
Sat 12:53:09 AM 38.1320 -85.7130 344° North 128 147 1,000 -600 Descending FlightAware ADS-B
Sat 12:53:29 AM 38.1420 -85.7160 347° North 128 147 800 -706 Descending FlightAware ADS-B
Sat 12:53:43 AM 38.1520 -85.7190 347° North 127 146 600 -789 Descending FlightAware ADS-B
Sat 12:54:07 AM 38.1660 -85.7240 344° North 130 150 300 -750 Descending FlightAware ADS-B
Sat 12:54:27 AM 38.1760 -85.7280 343° North 78 90 -900 Descending FlightAware ADS-B

Login

Don't have an account? Register now (free) for customized features, flight alerts, and more!